• Join FlightAware (Why Join?)
  • Login
  • US Flag 
04:55PM EDT


 

Airport Tracker/Info


-or-


 

Live Flight TrackerFlight Track Log ✈ N288M ✈ 06-Nov-2011 ✈ KTUP - KADH

Flight Track Log - Related Links

Times and Time Zones

All times are in EST time to prevent confusion due to time zone crossing. See the N288M flight status page for this flight to view local times or setup timezone preferences in your user account.

Time Position Orientation Groundspeed Altitude Reporting Facility
EST Latitude Longitude Course Direction KTS MPH feet Rate Location/Type
08:03PM 34.2730 -88.8191 203° Southwest  Level FlightAware Approximate
08:06PM 34.2322 -88.8397 285° West 166 191 2,700  Level Memphis Center
08:07PM 34.2411 -88.8797 274° West 138 159 3,500 720 Climbing Memphis Center
08:08PM 34.2436 -88.9200 287° West 124 143 4,200 600 Climbing Memphis Center
08:09PM 34.2525 -88.9550 270° West 118 136 4,800 600 Climbing Memphis Center
08:10PM 34.2528 -88.9953 264° West 118 136 5,400 600 Climbing Memphis Center
08:11PM 34.2492 -89.0356 264° West 123 142 6,000 360 Climbing Memphis Center
08:12PM 34.2453 -89.0781 273° West 123 142 6,200  Climbing Memphis Center
08:13PM 34.2481 -89.1333 273° West 149 171 6,000 -120 Descending Memphis Center
08:14PM 34.2506 -89.1886 278° West 166 191 6,000  Level Memphis Center
08:15PM 34.2575 -89.2489 270° West 166 191 6,000  Level Memphis Center
08:16PM 34.2578 -89.3017 276° West 160 184 6,100  Climbing Memphis Center
08:17PM 34.2625 -89.3569 278° West 160 184 6,000 -60 Descending Memphis Center
08:18PM 34.2692 -89.4122 273° West 160 184 6,000  Level Memphis Center
08:19PM 34.2717 -89.4675 276° West 160 184 6,000  Level Memphis Center
08:20PM 34.2764 -89.5200 273° West 160 184 6,000 -60 Level Memphis Center
08:21PM 34.2786 -89.5781 271° West 160 184 5,900  Descending Memphis Center
08:22PM 34.2792 -89.6333 270° West 160 184 6,000  Climbing Memphis Center
08:23PM 34.2794 -89.6836 278° West 160 184 6,000  Level Memphis Center
08:24PM 34.2858 -89.7386 275° West 160 184 6,000  Level Memphis Center
08:25PM 34.2903 -89.7967 278° West 165 190 6,000  Level Memphis Center
08:26PM 34.2969 -89.8544 273° West 165 190 6,100  Climbing Memphis Center
08:27PM 34.2992 -89.9097 275° West 171 197 6,000  Descending Memphis Center
08:28PM 34.3036 -89.9700 270° West 171 197 6,100  Climbing Memphis Center
08:29PM 34.3036 -90.0253 270° West 166 191 6,000  Descending Memphis Center
08:30PM 34.3039 -90.0806 287° West 166 191 6,100  Climbing Memphis Center
08:31PM 34.3164 -90.1308 286° West 160 184 6,100  Level Memphis Center
08:32PM 34.3292 -90.1861 287° West 166 191 6,100 -60 Level Memphis Center
08:33PM 34.3417 -90.2364 281° West 166 191 6,000  Descending Memphis Center
08:34PM 34.3500 -90.2892 284° West 166 191 6,100  Climbing Memphis Center
08:35PM 34.3606 -90.3419 281° West 166 191 6,100 -60 Level Memphis Center
08:36PM 34.3689 -90.3950 278° West 161 185 6,000 -60 Descending Memphis Center
08:37PM 34.3750 -90.4453 270° West 161 185 6,000  Level Memphis Center
08:38PM 34.3750 -90.4981 275° West 161 185 6,100  Climbing Memphis Center
08:39PM 34.3792 -90.5508 273° West 161 185 6,100  Level Memphis Center
08:40PM 34.3811 -90.6014 278° West 161 185 6,200  Climbing Memphis Center
08:41PM 34.3872 -90.6567 281° West 161 185 6,100 -60 Descending Memphis Center
08:42PM 34.3956 -90.7094 284° West 161 185 6,100 -60 Level Memphis Center
08:43PM 34.4078 -90.7675 278° West 161 185 6,000  Descending Memphis Center
08:44PM 34.4139 -90.8203 278° West 161 185 6,100  Climbing Memphis Center
08:45PM 34.4200 -90.8758 281° West 161 185 6,100  Level Memphis Center
08:46PM 34.4281 -90.9261 278° West 161 185 6,100  Level Memphis Center
08:47PM 34.4342 -90.9767 270° West 161 185 6,200 -60 Climbing Memphis Center
08:48PM 34.4339 -91.0294 270° West 156 180 6,000 -180 Descending Memphis Center
08:49PM 34.4336 -91.0800 270° West 156 180 5,900 -60 Descending Memphis Center
08:50PM 34.4333 -91.1278 272° West 156 180 5,900  Level Memphis Center
08:51PM 34.4350 -91.1781 261° West 156 180 5,900  Level Memphis Center
08:51PM 34.4306 -91.2133 253° West 147 169 5,900  Level Memphis Center
08:52PM 34.4286 -91.2208 266° West 156 180 5,900  Level Memphis Center
08:52PM 34.4261 -91.2686 270° West 148 170 5,900  Level Memphis Center
08:53PM 34.4261 -91.2736 272° West 156 180 5,900  Level Memphis Center
08:54PM 34.4278 -91.3242 285° West 156 180 5,900  Level Memphis Center
08:54PM 34.4358 -91.3619 315° West 158 182 5,900 60 Level Memphis Center
08:55PM 34.4442 -91.3722 275° West 151 174 6,000  Climbing Memphis Center
08:55PM 34.4478 -91.4200 270° West 150 173 5,900  Descending Memphis Center
08:56PM 34.4478 -91.4225 275° West 151 174 6,000  Climbing Memphis Center
08:56PM 34.4517 -91.4731 334° Northwest 155 178 5,900 -120 Descending Memphis Center
08:57PM 34.4558 -91.4756 283° West 156 180 5,900 60 Level Memphis Center
08:57PM 34.4656 -91.5286 317° Northwest 157 181 6,000 60 Climbing Memphis Center
08:58PM 34.4678 -91.5311 278° West 156 180 6,000  Level Memphis Center
08:58PM 34.4736 -91.5817 360° North 154 177 6,000  Level Memphis Center
08:59PM 34.4778 -91.5817 266° West 161 185 6,000  Level Memphis Center
08:59PM 34.4750 -91.6344 26° Northeast 157 181 6,000  Level Memphis Center
09:00PM 34.4792 -91.6319 277° West 161 185 6,000  Level Memphis Center
09:00PM 34.4850 -91.6875 18° North 156 180 6,000  Level Memphis Center
09:01PM 34.4914 -91.6850 272° West 161 185 6,000 60 Level Memphis Center
09:01PM 34.4928 -91.7381 18° North 156 180 6,100 60 Climbing Memphis Center
09:02PM 34.4992 -91.7356 272° West 161 185 6,100  Level Memphis Center
09:02PM 34.5006 -91.7911 47° Northeast 155 178 6,100  Level Memphis Center
09:03PM 34.5025 -91.7886 272° West 161 185 6,100 -240 Level Memphis Center
09:04PM 34.5042 -91.8442 270° West 162 186 5,900 -240 Descending Memphis Center
09:04PM 34.5042 -91.8467 275° West 161 185 5,900  Level Memphis Center
09:05PM 34.5075 -91.8972 270° West 160 184 5,900  Level Memphis Center
09:05PM 34.5075 -91.8997 281° West 161 185 5,900  Level Memphis Center
09:06PM 34.5153 -91.9503 223° Southwest 161 185 5,900  Level Memphis Center
09:06PM 34.5131 -91.9528 273° West 159 183 5,900  Level Memphis Center
09:06PM 34.5147 -91.9981 275° West 158 182 5,900  Level Memphis Center
09:07PM 34.5181 -92.0486 275° West 159 183 5,900  Level Memphis Center
09:08PM 34.5217 -92.0989 274° West 156 180 5,900  Level Memphis Center
09:09PM 34.5250 -92.1544 275° West 158 182 6,000  Climbing Memphis Center
09:10PM 34.5286 -92.2025 282° West 161 185 6,000  Level Memphis Center
09:11PM 34.5381 -92.2556 282° West 161 185 6,100  Climbing Memphis Center
09:12PM 34.5478 -92.3114 287° West 162 186 6,100  Level Memphis Center
09:13PM 34.5614 -92.3672 272° West 162 186 6,100  Level Memphis Center
09:14PM 34.5628 -92.4200 274° West 158 182 6,100  Level Memphis Center
09:15PM 34.5658 -92.4756 278° West 159 183 6,100 -60 Level Memphis Center
09:16PM 34.5714 -92.5264 277° West 161 185 6,000 -120 Descending Memphis Center
09:18PM 34.5803 -92.6122 279° West 164 189 5,900  Descending Memphis Center
09:19PM 34.5875 -92.6653 282° West 164 189 6,000  Climbing Memphis Center
09:20PM 34.5969 -92.7186 274° West 164 189 6,000  Level Memphis Center
09:21PM 34.6000 -92.7742 271° West 164 189 6,000  Level Memphis Center
09:22PM 34.6011 -92.8297 278° West 164 189 6,000  Level Memphis Center
09:23PM 34.6064 -92.8753 282° West 158 182 6,000  Level Memphis Center
09:24PM 34.6158 -92.9311 277° West 164 189 6,000 -60 Level Memphis Center
09:25PM 34.6208 -92.9842 277° West 164 189 5,900 -60 Descending Memphis Center
09:26PM 34.6261 -93.0400 273° West 164 189 5,900  Level Memphis Center
09:27PM 34.6289 -93.0956 271° West 164 189 6,000  Climbing Memphis Center
09:28PM 34.6300 -93.1486 277° West 159 183 6,000  Level Memphis Center
09:29PM 34.6350 -93.1992 274° West 159 183 6,100  Climbing Memphis Center
09:30PM 34.6381 -93.2525 268° West 159 183 6,000 -60 Descending Memphis Center
09:31PM 34.6367 -93.3078 271° West 159 183 6,000  Level Memphis Center
09:32PM 34.6375 -93.3608 274° West 159 183 6,000 -60 Level Memphis Center
09:33PM 34.6403 -93.4114 263° West 159 183 5,900 -60 Descending Memphis Center
09:34PM 34.6350 -93.4669 274° West 159 183 5,900  Level Memphis Center
09:35PM 34.6378 -93.5200 273° West 159 183 5,900  Level Memphis Center
09:36PM 34.6406 -93.5756 271° West 159 183 5,900  Level Memphis Center
09:37PM 34.6411 -93.6286 268° West 159 183 5,900  Level Memphis Center
09:38PM 34.6397 -93.6817 277° West 159 183 5,900  Level Memphis Center
09:39PM 34.6447 -93.7322 273° West 159 183 5,900 -60 Level Memphis Center
09:40PM 34.6472 -93.7903 271° West 159 183 5,800  Descending Memphis Center
09:41PM 34.6481 -93.8408 287° West 159 183 5,900 60 Climbing Memphis Center
09:42PM 34.6611 -93.8944 284° West 159 183 6,000  Climbing Memphis Center
09:43PM 34.6719 -93.9481 271° West 165 190 5,900 -60 Descending Memphis Center
09:44PM 34.6725 -93.9986 271° West 160 184 5,900  Level Memphis Center
09:45PM 34.6733 -94.0492 276° West 160 184 6,000  Climbing Memphis Center
09:46PM 34.6778 -94.1047 271° West 160 184 6,000  Level Memphis Center
09:47PM 34.6783 -94.1603 284° West 160 184 6,000  Level Memphis Center
09:48PM 34.6892 -94.2114 278° West 160 184 6,000 -60 Level Memphis Center
09:49PM 34.6958 -94.2672 268° West 160 184 5,900  Descending Memphis Center
09:50PM 34.6942 -94.3228 277° West 160 184 6,000  Climbing Memphis Center
09:51PM 34.6989 -94.3708 276° West 166 191 6,000 -120 Level Memphis Center
09:52PM 34.7033 -94.4217 280° West 159 183 5,800  Descending Memphis Center
09:53PM 34.7103 -94.4675 272° West 154 177 6,000 60 Climbing Memphis Center
09:55PM 34.7128 -94.5667 268° West 137 158 6,000  Level Fort Worth Center
09:56PM 34.7117 -94.6097 262° West 137 158 6,000  Level Fort Worth Center
09:57PM 34.7064 -94.6553 268° West 137 158 6,000  Level Fort Worth Center
09:58PM 34.7053 -94.7008 263° West 142 163 6,100  Climbing Fort Worth Center
09:59PM 34.7003 -94.7514 265° West 147 169 6,000 -60 Descending Fort Worth Center
10:00PM 34.6969 -94.8019 266° West 153 176 6,000  Level Fort Worth Center
10:01PM 34.6939 -94.8578 269° West 159 183 6,000 -60 Level Fort Worth Center
10:02PM 34.6931 -94.9083 269° West 159 183 5,900 -60 Descending Fort Worth Center
10:03PM 34.6919 -94.9664 275° West 164 189 5,900  Level Fort Worth Center
10:04PM 34.6950 -95.0117 271° West 164 189 5,900  Level Fort Worth Center
10:05PM 34.6961 -95.0672 268° West 157 181 6,000 -60 Climbing Fort Worth Center
10:06PM 34.6947 -95.1153 271° West 157 181 5,800  Descending Fort Worth Center
10:07PM 34.6958 -95.1683 271° West 157 181 6,000 60 Climbing Fort Worth Center
10:08PM 34.6967 -95.2214 277° West 157 181 6,000  Level Fort Worth Center
10:09PM 34.7017 -95.2742 266° West 162 186 6,000  Level Fort Worth Center
10:10PM 34.6986 -95.3247 277° West 157 181 6,000  Level Fort Worth Center
10:11PM 34.7036 -95.3753 279° West 157 181 6,000  Level Fort Worth Center
10:12PM 34.7106 -95.4281 277° West 157 181 6,100  Climbing Fort Worth Center
10:13PM 34.7156 -95.4783 279° West 157 181 6,100 -60 Level Fort Worth Center
10:14PM 34.7228 -95.5339 271° West 164 189 6,000 -60 Descending Fort Worth Center
10:15PM 34.7233 -95.5769 271° West 153 176 6,000  Level Fort Worth Center
10:16PM 34.7239 -95.6272 277° West 153 176 6,100  Climbing Fort Worth Center
10:17PM 34.7289 -95.6778 293° West 153 176 6,000 -120 Descending Fort Worth Center
10:18PM 34.7483 -95.7331 274° West 158 182 5,900 -60 Descending Fort Worth Center
10:19PM 34.7511 -95.7808 265° West 159 183 5,900  Level Fort Worth Center
10:20PM 34.7475 -95.8317 268° West 159 183 6,000  Climbing Fort Worth Center
10:21PM 34.7461 -95.8847 280° West 154 177 6,000  Level Fort Worth Center
10:22PM 34.7531 -95.9325 284° West 154 177 6,000  Level Fort Worth Center
10:23PM 34.7642 -95.9853 268° West 160 184 6,000 -180 Level Fort Worth Center
10:24PM 34.7625 -96.0411 268° West 160 184 5,700 -420 Descending Fort Worth Center
10:25PM 34.7611 -96.0867 276° West 160 184 5,200 -540 Descending Fort Worth Center
10:26PM 34.7658 -96.1447 281° West 165 190 4,700 -540 Descending Fort Worth Center
10:27PM 34.7747 -96.2028 281° West 170 196 4,200 -480 Descending Fort Worth Center
10:28PM 34.7836 -96.2606 278° West 175 201 3,800 -420 Descending Fort Worth Center
10:29PM 34.7903 -96.3211 283° West 180 207 3,400 -300 Descending Fort Worth Center
10:30PM 34.8014 -96.3792 283° West 180 207 3,200 -240 Descending Fort Worth Center